sensor_id;sensor_type;location;lat;lon;timestamp;P1;durP1;ratioP1;P2;durP2;ratioP2
46158;SDS011;31888;44.512;26.104;2023-06-10T00:02:19;13.32;;;8.35;;
46158;SDS011;31888;44.512;26.104;2023-06-10T00:04:44;10.27;;;7.28;;
46158;SDS011;31888;44.512;26.104;2023-06-10T00:07:10;11.57;;;7.07;;
46158;SDS011;31888;44.512;26.104;2023-06-10T00:09:35;17.42;;;8.95;;
46158;SDS011;31888;44.512;26.104;2023-06-10T00:12:00;14.02;;;8.18;;
46158;SDS011;31888;44.512;26.104;2023-06-10T00:14:25;15.57;;;9.75;;
46158;SDS011;31888;44.512;26.104;2023-06-10T00:16:49;20.95;;;10.25;;
46158;SDS011;31888;44.512;26.104;2023-06-10T00:19:16;17.55;;;9.90;;
46158;SDS011;31888;44.512;26.104;2023-06-10T00:21:41;15.68;;;10.10;;
46158;SDS011;31888;44.512;26.104;2023-06-10T00:24:07;27.02;;;10.63;;
46158;SDS011;31888;44.512;26.104;2023-06-10T00:26:35;21.33;;;9.55;;
46158;SDS011;31888;44.512;26.104;2023-06-10T00:29:00;12.15;;;8.35;;
46158;SDS011;31888;44.512;26.104;2023-06-10T00:31:25;17.25;;;7.80;;
46158;SDS011;31888;44.512;26.104;2023-06-10T00:33:50;20.52;;;8.68;;
46158;SDS011;31888;44.512;26.104;2023-06-10T00:36:16;16.80;;;7.78;;
46158;SDS011;31888;44.512;26.104;2023-06-10T00:38:41;15.02;;;8.38;;
46158;SDS011;31888;44.512;26.104;2023-06-10T00:41:06;13.98;;;7.90;;
46158;SDS011;31888;44.512;26.104;2023-06-10T00:43:31;17.67;;;8.23;;
46158;SDS011;31888;44.512;26.104;2023-06-10T00:45:55;13.18;;;7.32;;
46158;SDS011;31888;44.512;26.104;2023-06-10T00:48:20;17.95;;;8.40;;
46158;SDS011;31888;44.512;26.104;2023-06-10T00:50:45;12.45;;;7.93;;
46158;SDS011;31888;44.512;26.104;2023-06-10T00:53:12;14.38;;;7.60;;
46158;SDS011;31888;44.512;26.104;2023-06-10T00:55:38;13.70;;;7.50;;
46158;SDS011;31888;44.512;26.104;2023-06-10T01:01:43;12.70;;;6.93;;
46158;SDS011;31888;44.512;26.104;2023-06-10T01:05:03;12.73;;;7.43;;
46158;SDS011;31888;44.512;26.104;2023-06-10T01:08:27;13.20;;;7.72;;
46158;SDS011;31888;44.512;26.104;2023-06-10T01:10:59;13.90;;;7.40;;
46158;SDS011;31888;44.512;26.104;2023-06-10T01:13:26;19.60;;;7.53;;
46158;SDS011;31888;44.512;26.104;2023-06-10T01:15:53;15.35;;;8.00;;
46158;SDS011;31888;44.512;26.104;2023-06-10T01:18:19;11.75;;;7.28;;
46158;SDS011;31888;44.512;26.104;2023-06-10T01:20:44;17.15;;;7.88;;
46158;SDS011;31888;44.512;26.104;2023-06-10T01:23:10;13.45;;;7.32;;
46158;SDS011;31888;44.512;26.104;2023-06-10T01:25:36;17.30;;;8.45;;
46158;SDS011;31888;44.512;26.104;2023-06-10T01:28:04;16.88;;;8.00;;
46158;SDS011;31888;44.512;26.104;2023-06-10T01:30:36;19.05;;;8.10;;
46158;SDS011;31888;44.512;26.104;2023-06-10T01:33:07;17.58;;;8.35;;
46158;SDS011;31888;44.512;26.104;2023-06-10T01:35:33;15.88;;;7.43;;
46158;SDS011;31888;44.512;26.104;2023-06-10T01:38:03;16.45;;;7.35;;
46158;SDS011;31888;44.512;26.104;2023-06-10T01:40:32;11.20;;;7.82;;
46158;SDS011;31888;44.512;26.104;2023-06-10T01:42:57;19.83;;;8.15;;
46158;SDS011;31888;44.512;26.104;2023-06-10T01:45:22;15.55;;;8.38;;
46158;SDS011;31888;44.512;26.104;2023-06-10T01:47:48;18.70;;;8.35;;
46158;SDS011;31888;44.512;26.104;2023-06-10T01:50:13;13.95;;;8.02;;
46158;SDS011;31888;44.512;26.104;2023-06-10T01:52:39;19.55;;;8.60;;
46158;SDS011;31888;44.512;26.104;2023-06-10T01:55:05;16.10;;;7.72;;
46158;SDS011;31888;44.512;26.104;2023-06-10T01:57:40;14.43;;;7.47;;
46158;SDS011;31888;44.512;26.104;2023-06-10T02:00:06;11.48;;;7.25;;
46158;SDS011;31888;44.512;26.104;2023-06-10T02:02:44;16.48;;;7.93;;
46158;SDS011;31888;44.512;26.104;2023-06-10T02:05:10;16.73;;;7.70;;
46158;SDS011;31888;44.512;26.104;2023-06-10T02:07:35;18.10;;;7.55;;
46158;SDS011;31888;44.512;26.104;2023-06-10T02:10:00;12.77;;;7.20;;
46158;SDS011;31888;44.512;26.104;2023-06-10T02:12:27;22.05;;;7.65;;
46158;SDS011;31888;44.512;26.104;2023-06-10T02:14:52;17.02;;;7.35;;
46158;SDS011;31888;44.512;26.104;2023-06-10T02:17:17;15.38;;;7.43;;
46158;SDS011;31888;44.512;26.104;2023-06-10T02:20:02;14.55;;;7.65;;
46158;SDS011;31888;44.512;26.104;2023-06-10T02:22:29;15.40;;;8.48;;
46158;SDS011;31888;44.512;26.104;2023-06-10T02:24:55;11.52;;;6.95;;
46158;SDS011;31888;44.512;26.104;2023-06-10T02:27:20;12.02;;;7.35;;
46158;SDS011;31888;44.512;26.104;2023-06-10T02:29:44;13.20;;;8.50;;
46158;SDS011;31888;44.512;26.104;2023-06-10T02:32:10;17.00;;;8.48;;
46158;SDS011;31888;44.512;26.104;2023-06-10T02:34:37;19.90;;;8.48;;
46158;SDS011;31888;44.512;26.104;2023-06-10T02:37:02;12.90;;;7.50;;
46158;SDS011;31888;44.512;26.104;2023-06-10T02:39:29;19.52;;;7.85;;
46158;SDS011;31888;44.512;26.104;2023-06-10T02:41:54;14.82;;;7.90;;
46158;SDS011;31888;44.512;26.104;2023-06-10T02:44:18;14.68;;;7.72;;
46158;SDS011;31888;44.512;26.104;2023-06-10T02:46:44;14.93;;;7.65;;
46158;SDS011;31888;44.512;26.104;2023-06-10T02:49:10;16.88;;;7.78;;
46158;SDS011;31888;44.512;26.104;2023-06-10T02:51:35;15.80;;;7.80;;
46158;SDS011;31888;44.512;26.104;2023-06-10T02:54:00;14.68;;;7.78;;
46158;SDS011;31888;44.512;26.104;2023-06-10T02:56:25;12.85;;;7.50;;
46158;SDS011;31888;44.512;26.104;2023-06-10T02:58:53;14.77;;;7.13;;
46158;SDS011;31888;44.512;26.104;2023-06-10T03:01:19;14.55;;;8.10;;
46158;SDS011;31888;44.512;26.104;2023-06-10T03:03:52;13.00;;;8.00;;
46158;SDS011;31888;44.512;26.104;2023-06-10T03:06:20;14.57;;;8.15;;
46158;SDS011;31888;44.512;26.104;2023-06-10T03:08:48;11.85;;;7.80;;
46158;SDS011;31888;44.512;26.104;2023-06-10T03:11:14;16.08;;;7.25;;
46158;SDS011;31888;44.512;26.104;2023-06-10T03:13:39;13.10;;;7.57;;
46158;SDS011;31888;44.512;26.104;2023-06-10T03:16:08;11.27;;;7.35;;
46158;SDS011;31888;44.512;26.104;2023-06-10T03:18:48;16.00;;;7.43;;
46158;SDS011;31888;44.512;26.104;2023-06-10T03:21:13;17.45;;;7.13;;
46158;SDS011;31888;44.512;26.104;2023-06-10T03:23:40;18.40;;;7.70;;
46158;SDS011;31888;44.512;26.104;2023-06-10T03:26:04;11.70;;;7.03;;
46158;SDS011;31888;44.512;26.104;2023-06-10T03:28:32;18.10;;;7.68;;
46158;SDS011;31888;44.512;26.104;2023-06-10T03:30:57;13.20;;;6.82;;
46158;SDS011;31888;44.512;26.104;2023-06-10T03:33:24;15.65;;;7.45;;
46158;SDS011;31888;44.512;26.104;2023-06-10T03:35:49;12.63;;;7.15;;
46158;SDS011;31888;44.512;26.104;2023-06-10T03:38:15;11.65;;;6.85;;
46158;SDS011;31888;44.512;26.104;2023-06-10T03:40:42;12.88;;;7.53;;
46158;SDS011;31888;44.512;26.104;2023-06-10T03:43:06;9.68;;;6.50;;
46158;SDS011;31888;44.512;26.104;2023-06-10T03:45:31;9.88;;;7.38;;
46158;SDS011;31888;44.512;26.104;2023-06-10T03:47:57;14.10;;;7.40;;
46158;SDS011;31888;44.512;26.104;2023-06-10T03:50:28;16.00;;;7.15;;
46158;SDS011;31888;44.512;26.104;2023-06-10T03:52:54;12.32;;;6.63;;
46158;SDS011;31888;44.512;26.104;2023-06-10T03:55:21;14.93;;;7.47;;
46158;SDS011;31888;44.512;26.104;2023-06-10T03:57:47;15.05;;;7.55;;
46158;SDS011;31888;44.512;26.104;2023-06-10T04:00:14;14.13;;;7.15;;
46158;SDS011;31888;44.512;26.104;2023-06-10T04:02:39;15.13;;;7.10;;
46158;SDS011;31888;44.512;26.104;2023-06-10T04:05:15;13.45;;;6.50;;
46158;SDS011;31888;44.512;26.104;2023-06-10T04:07:40;16.00;;;7.30;;
46158;SDS011;31888;44.512;26.104;2023-06-10T04:10:07;9.55;;;6.20;;
46158;SDS011;31888;44.512;26.104;2023-06-10T04:12:32;17.90;;;7.32;;
46158;SDS011;31888;44.512;26.104;2023-06-10T04:14:58;10.90;;;6.75;;
46158;SDS011;31888;44.512;26.104;2023-06-10T04:17:25;19.45;;;7.55;;
46158;SDS011;31888;44.512;26.104;2023-06-10T04:19:51;15.63;;;7.07;;
46158;SDS011;31888;44.512;26.104;2023-06-10T04:22:18;16.05;;;6.82;;
46158;SDS011;31888;44.512;26.104;2023-06-10T04:24:43;15.00;;;6.80;;
46158;SDS011;31888;44.512;26.104;2023-06-10T04:27:08;18.77;;;6.72;;
46158;SDS011;31888;44.512;26.104;2023-06-10T04:29:32;10.82;;;6.53;;
46158;SDS011;31888;44.512;26.104;2023-06-10T04:31:59;12.77;;;7.13;;
46158;SDS011;31888;44.512;26.104;2023-06-10T04:34:26;13.85;;;6.53;;
46158;SDS011;31888;44.512;26.104;2023-06-10T04:36:52;16.02;;;7.03;;
46158;SDS011;31888;44.512;26.104;2023-06-10T04:39:17;14.93;;;6.78;;
46158;SDS011;31888;44.512;26.104;2023-06-10T04:41:42;11.73;;;6.60;;
46158;SDS011;31888;44.512;26.104;2023-06-10T04:44:08;12.65;;;7.13;;
46158;SDS011;31888;44.512;26.104;2023-06-10T04:46:33;14.98;;;6.85;;
46158;SDS011;31888;44.512;26.104;2023-06-10T04:48:59;13.30;;;6.88;;
46158;SDS011;31888;44.512;26.104;2023-06-10T04:51:24;14.77;;;6.63;;
46158;SDS011;31888;44.512;26.104;2023-06-10T04:53:49;12.35;;;7.45;;
46158;SDS011;31888;44.512;26.104;2023-06-10T04:56:13;12.95;;;6.82;;
46158;SDS011;31888;44.512;26.104;2023-06-10T04:58:38;13.40;;;6.78;;
46158;SDS011;31888;44.512;26.104;2023-06-10T05:01:03;22.08;;;7.30;;
46158;SDS011;31888;44.512;26.104;2023-06-10T05:03:28;11.05;;;6.65;;
46158;SDS011;31888;44.512;26.104;2023-06-10T05:05:54;15.95;;;7.60;;
46158;SDS011;31888;44.512;26.104;2023-06-10T05:08:31;16.70;;;7.40;;
46158;SDS011;31888;44.512;26.104;2023-06-10T05:10:55;18.35;;;7.57;;
46158;SDS011;31888;44.512;26.104;2023-06-10T05:13:21;14.65;;;7.70;;
46158;SDS011;31888;44.512;26.104;2023-06-10T05:15:48;12.65;;;6.85;;
46158;SDS011;31888;44.512;26.104;2023-06-10T05:18:13;20.50;;;7.13;;
46158;SDS011;31888;44.512;26.104;2023-06-10T05:20:38;17.88;;;6.95;;
46158;SDS011;31888;44.512;26.104;2023-06-10T05:23:04;13.65;;;6.57;;
46158;SDS011;31888;44.512;26.104;2023-06-10T05:25:30;8.55;;;5.72;;
46158;SDS011;31888;44.512;26.104;2023-06-10T05:27:55;13.60;;;6.60;;
46158;SDS011;31888;44.512;26.104;2023-06-10T05:30:21;12.70;;;7.22;;
46158;SDS011;31888;44.512;26.104;2023-06-10T05:32:48;13.10;;;6.68;;
46158;SDS011;31888;44.512;26.104;2023-06-10T05:35:14;8.82;;;6.65;;
46158;SDS011;31888;44.512;26.104;2023-06-10T05:37:39;11.43;;;6.43;;
46158;SDS011;31888;44.512;26.104;2023-06-10T05:40:08;12.52;;;5.97;;
46158;SDS011;31888;44.512;26.104;2023-06-10T05:42:34;8.40;;;6.63;;
46158;SDS011;31888;44.512;26.104;2023-06-10T05:44:59;11.88;;;7.10;;
46158;SDS011;31888;44.512;26.104;2023-06-10T05:47:27;12.88;;;7.05;;
46158;SDS011;31888;44.512;26.104;2023-06-10T05:49:52;14.45;;;6.63;;
46158;SDS011;31888;44.512;26.104;2023-06-10T05:52:18;13.93;;;7.57;;
46158;SDS011;31888;44.512;26.104;2023-06-10T05:54:42;15.20;;;7.40;;
46158;SDS011;31888;44.512;26.104;2023-06-10T05:57:09;11.00;;;7.43;;
46158;SDS011;31888;44.512;26.104;2023-06-10T05:59:34;15.23;;;7.50;;
46158;SDS011;31888;44.512;26.104;2023-06-10T06:01:59;11.23;;;7.10;;
46158;SDS011;31888;44.512;26.104;2023-06-10T06:04:25;15.82;;;7.50;;
46158;SDS011;31888;44.512;26.104;2023-06-10T06:06:50;12.55;;;7.47;;
46158;SDS011;31888;44.512;26.104;2023-06-10T06:09:14;14.85;;;7.95;;
46158;SDS011;31888;44.512;26.104;2023-06-10T06:11:39;20.65;;;7.55;;
46158;SDS011;31888;44.512;26.104;2023-06-10T06:14:07;14.10;;;7.82;;
46158;SDS011;31888;44.512;26.104;2023-06-10T06:16:34;14.48;;;7.43;;
46158;SDS011;31888;44.512;26.104;2023-06-10T06:18:59;18.30;;;8.30;;
46158;SDS011;31888;44.512;26.104;2023-06-10T06:21:25;16.85;;;7.72;;
46158;SDS011;31888;44.512;26.104;2023-06-10T06:23:50;21.83;;;7.20;;
46158;SDS011;31888;44.512;26.104;2023-06-10T06:26:15;10.15;;;6.63;;
46158;SDS011;31888;44.512;26.104;2023-06-10T06:28:40;15.25;;;7.18;;
46158;SDS011;31888;44.512;26.104;2023-06-10T06:31:08;17.98;;;7.50;;
46158;SDS011;31888;44.512;26.104;2023-06-10T06:33:35;20.90;;;8.48;;
46158;SDS011;31888;44.512;26.104;2023-06-10T06:36:29;16.38;;;7.40;;
46158;SDS011;31888;44.512;26.104;2023-06-10T06:38:54;11.38;;;7.35;;
46158;SDS011;31888;44.512;26.104;2023-06-10T06:41:24;13.20;;;6.75;;
46158;SDS011;31888;44.512;26.104;2023-06-10T06:43:50;13.27;;;8.10;;
46158;SDS011;31888;44.512;26.104;2023-06-10T06:46:27;18.27;;;6.63;;
46158;SDS011;31888;44.512;26.104;2023-06-10T06:48:53;16.25;;;7.10;;
46158;SDS011;31888;44.512;26.104;2023-06-10T06:51:19;14.27;;;7.25;;
46158;SDS011;31888;44.512;26.104;2023-06-10T06:53:44;18.08;;;7.10;;
46158;SDS011;31888;44.512;26.104;2023-06-10T06:56:10;14.85;;;7.20;;
46158;SDS011;31888;44.512;26.104;2023-06-10T06:58:35;15.68;;;6.85;;
46158;SDS011;31888;44.512;26.104;2023-06-10T07:01:00;18.13;;;7.82;;
46158;SDS011;31888;44.512;26.104;2023-06-10T07:03:29;18.70;;;6.68;;
46158;SDS011;31888;44.512;26.104;2023-06-10T07:05:56;17.60;;;6.50;;
46158;SDS011;31888;44.512;26.104;2023-06-10T07:08:21;17.80;;;6.60;;
46158;SDS011;31888;44.512;26.104;2023-06-10T07:10:49;14.05;;;6.57;;
46158;SDS011;31888;44.512;26.104;2023-06-10T07:13:14;13.82;;;6.32;;
46158;SDS011;31888;44.512;26.104;2023-06-10T07:15:38;18.05;;;7.30;;
46158;SDS011;31888;44.512;26.104;2023-06-10T07:18:03;14.25;;;6.65;;
46158;SDS011;31888;44.512;26.104;2023-06-10T07:20:30;14.55;;;6.43;;
46158;SDS011;31888;44.512;26.104;2023-06-10T07:22:56;12.25;;;6.18;;
46158;SDS011;31888;44.512;26.104;2023-06-10T07:25:21;11.88;;;5.95;;
46158;SDS011;31888;44.512;26.104;2023-06-10T07:27:46;15.60;;;6.82;;
46158;SDS011;31888;44.512;26.104;2023-06-10T07:30:11;12.43;;;5.57;;
46158;SDS011;31888;44.512;26.104;2023-06-10T07:32:37;13.40;;;5.55;;
46158;SDS011;31888;44.512;26.104;2023-06-10T07:35:02;8.75;;;5.47;;
46158;SDS011;31888;44.512;26.104;2023-06-10T07:37:29;24.40;;;5.85;;
46158;SDS011;31888;44.512;26.104;2023-06-10T07:39:54;9.80;;;5.43;;
46158;SDS011;31888;44.512;26.104;2023-06-10T07:42:20;26.67;;;5.80;;
46158;SDS011;31888;44.512;26.104;2023-06-10T07:44:45;12.85;;;5.97;;
46158;SDS011;31888;44.512;26.104;2023-06-10T07:47:09;14.77;;;4.82;;
46158;SDS011;31888;44.512;26.104;2023-06-10T07:49:38;11.75;;;5.25;;
46158;SDS011;31888;44.512;26.104;2023-06-10T07:52:05;10.43;;;5.35;;
46158;SDS011;31888;44.512;26.104;2023-06-10T07:54:34;20.70;;;5.95;;
46158;SDS011;31888;44.512;26.104;2023-06-10T07:56:59;7.45;;;4.88;;
46158;SDS011;31888;44.512;26.104;2023-06-10T07:59:25;15.48;;;6.18;;
46158;SDS011;31888;44.512;26.104;2023-06-10T08:01:50;12.82;;;5.68;;
46158;SDS011;31888;44.512;26.104;2023-06-10T08:04:16;17.35;;;6.00;;
46158;SDS011;31888;44.512;26.104;2023-06-10T08:06:42;13.25;;;5.72;;
46158;SDS011;31888;44.512;26.104;2023-06-10T08:09:07;11.23;;;5.85;;
46158;SDS011;31888;44.512;26.104;2023-06-10T08:11:33;10.63;;;5.13;;
46158;SDS011;31888;44.512;26.104;2023-06-10T08:13:58;8.30;;;5.53;;
46158;SDS011;31888;44.512;26.104;2023-06-10T08:16:24;10.50;;;5.70;;
46158;SDS011;31888;44.512;26.104;2023-06-10T08:18:49;16.40;;;5.38;;
46158;SDS011;31888;44.512;26.104;2023-06-10T08:21:17;13.27;;;5.22;;
46158;SDS011;31888;44.512;26.104;2023-06-10T08:23:42;12.32;;;5.07;;
46158;SDS011;31888;44.512;26.104;2023-06-10T08:26:07;9.98;;;5.18;;
46158;SDS011;31888;44.512;26.104;2023-06-10T08:28:35;10.98;;;5.15;;
46158;SDS011;31888;44.512;26.104;2023-06-10T08:31:01;21.83;;;6.38;;
46158;SDS011;31888;44.512;26.104;2023-06-10T08:33:47;13.10;;;5.47;;
46158;SDS011;31888;44.512;26.104;2023-06-10T08:36:35;15.45;;;5.63;;
46158;SDS011;31888;44.512;26.104;2023-06-10T08:39:00;9.68;;;4.85;;
46158;SDS011;31888;44.512;26.104;2023-06-10T08:41:25;11.32;;;4.97;;
46158;SDS011;31888;44.512;26.104;2023-06-10T08:43:58;17.80;;;6.65;;
46158;SDS011;31888;44.512;26.104;2023-06-10T08:46:28;13.80;;;5.28;;
46158;SDS011;31888;44.512;26.104;2023-06-10T08:48:55;12.70;;;5.00;;
46158;SDS011;31888;44.512;26.104;2023-06-10T08:51:26;17.15;;;6.40;;
46158;SDS011;31888;44.512;26.104;2023-06-10T08:53:53;15.57;;;5.75;;
46158;SDS011;31888;44.512;26.104;2023-06-10T08:56:24;12.52;;;5.40;;
46158;SDS011;31888;44.512;26.104;2023-06-10T08:58:52;12.57;;;5.38;;
46158;SDS011;31888;44.512;26.104;2023-06-10T09:01:21;7.57;;;4.88;;
46158;SDS011;31888;44.512;26.104;2023-06-10T09:03:47;15.98;;;5.18;;
46158;SDS011;31888;44.512;26.104;2023-06-10T09:06:15;11.13;;;5.18;;
46158;SDS011;31888;44.512;26.104;2023-06-10T09:08:42;9.32;;;4.57;;
46158;SDS011;31888;44.512;26.104;2023-06-10T09:11:09;16.85;;;5.47;;
46158;SDS011;31888;44.512;26.104;2023-06-10T09:13:34;11.02;;;5.05;;
46158;SDS011;31888;44.512;26.104;2023-06-10T09:15:59;8.15;;;4.60;;
46158;SDS011;31888;44.512;26.104;2023-06-10T09:18:28;11.70;;;4.88;;
46158;SDS011;31888;44.512;26.104;2023-06-10T09:20:53;14.80;;;5.38;;
46158;SDS011;31888;44.512;26.104;2023-06-10T09:23:21;15.90;;;5.40;;
46158;SDS011;31888;44.512;26.104;2023-06-10T09:25:46;8.30;;;4.50;;
46158;SDS011;31888;44.512;26.104;2023-06-10T09:28:20;9.77;;;6.05;;
46158;SDS011;31888;44.512;26.104;2023-06-10T09:30:46;11.38;;;5.55;;
46158;SDS011;31888;44.512;26.104;2023-06-10T09:33:12;10.98;;;4.50;;
46158;SDS011;31888;44.512;26.104;2023-06-10T09:35:46;9.57;;;4.53;;
46158;SDS011;31888;44.512;26.104;2023-06-10T09:38:12;12.52;;;4.95;;
46158;SDS011;31888;44.512;26.104;2023-06-10T09:40:41;11.73;;;5.15;;
46158;SDS011;31888;44.512;26.104;2023-06-10T09:43:14;12.77;;;5.15;;
46158;SDS011;31888;44.512;26.104;2023-06-10T09:45:50;8.77;;;4.75;;
46158;SDS011;31888;44.512;26.104;2023-06-10T09:48:17;14.55;;;5.10;;
46158;SDS011;31888;44.512;26.104;2023-06-10T09:50:42;10.30;;;4.72;;
46158;SDS011;31888;44.512;26.104;2023-06-10T09:53:10;10.68;;;5.05;;
46158;SDS011;31888;44.512;26.104;2023-06-10T09:55:37;9.95;;;5.32;;
46158;SDS011;31888;44.512;26.104;2023-06-10T09:58:02;12.10;;;5.22;;
46158;SDS011;31888;44.512;26.104;2023-06-10T10:00:34;17.63;;;5.45;;
46158;SDS011;31888;44.512;26.104;2023-06-10T10:03:00;20.50;;;5.97;;
46158;SDS011;31888;44.512;26.104;2023-06-10T10:05:26;13.10;;;5.65;;
46158;SDS011;31888;44.512;26.104;2023-06-10T10:07:52;14.10;;;5.65;;
46158;SDS011;31888;44.512;26.104;2023-06-10T10:10:22;11.10;;;5.75;;
46158;SDS011;31888;44.512;26.104;2023-06-10T10:12:47;10.15;;;5.72;;
46158;SDS011;31888;44.512;26.104;2023-06-10T10:15:16;12.50;;;5.72;;
46158;SDS011;31888;44.512;26.104;2023-06-10T10:17:43;11.82;;;5.78;;
46158;SDS011;31888;44.512;26.104;2023-06-10T10:20:22;12.73;;;5.53;;
46158;SDS011;31888;44.512;26.104;2023-06-10T10:22:56;9.65;;;5.80;;
46158;SDS011;31888;44.512;26.104;2023-06-10T10:25:24;16.27;;;7.57;;
46158;SDS011;31888;44.512;26.104;2023-06-10T10:27:57;10.98;;;7.18;;
46158;SDS011;31888;44.512;26.104;2023-06-10T10:30:29;11.63;;;7.18;;
46158;SDS011;31888;44.512;26.104;2023-06-10T10:33:00;18.52;;;6.80;;
46158;SDS011;31888;44.512;26.104;2023-06-10T10:35:33;12.38;;;6.80;;
46158;SDS011;31888;44.512;26.104;2023-06-10T10:37:59;12.27;;;6.55;;
46158;SDS011;31888;44.512;26.104;2023-06-10T10:43:24;14.13;;;7.55;;
46158;SDS011;31888;44.512;26.104;2023-06-10T10:45:57;13.25;;;7.82;;
46158;SDS011;31888;44.512;26.104;2023-06-10T10:48:23;13.02;;;7.32;;
46158;SDS011;31888;44.512;26.104;2023-06-10T10:50:58;23.08;;;10.98;;
46158;SDS011;31888;44.512;26.104;2023-06-10T10:53:31;16.55;;;7.65;;
46158;SDS011;31888;44.512;26.104;2023-06-10T10:56:05;17.13;;;8.50;;
46158;SDS011;31888;44.512;26.104;2023-06-10T10:58:34;10.88;;;6.97;;
46158;SDS011;31888;44.512;26.104;2023-06-10T11:01:10;13.65;;;7.38;;
46158;SDS011;31888;44.512;26.104;2023-06-10T11:03:42;12.90;;;7.90;;
46158;SDS011;31888;44.512;26.104;2023-06-10T11:06:12;16.98;;;9.57;;
46158;SDS011;31888;44.512;26.104;2023-06-10T11:08:45;16.23;;;9.93;;
46158;SDS011;31888;44.512;26.104;2023-06-10T11:11:19;20.77;;;12.45;;
46158;SDS011;31888;44.512;26.104;2023-06-10T11:13:57;17.52;;;10.20;;
46158;SDS011;31888;44.512;26.104;2023-06-10T11:16:25;13.65;;;8.48;;
46158;SDS011;31888;44.512;26.104;2023-06-10T11:19:01;13.88;;;8.90;;
46158;SDS011;31888;44.512;26.104;2023-06-10T11:21:26;16.92;;;8.55;;
46158;SDS011;31888;44.512;26.104;2023-06-10T11:23:57;15.60;;;8.45;;
46158;SDS011;31888;44.512;26.104;2023-06-10T11:26:34;12.82;;;7.35;;
46158;SDS011;31888;44.512;26.104;2023-06-10T11:29:17;11.35;;;7.90;;
46158;SDS011;31888;44.512;26.104;2023-06-10T11:31:49;12.48;;;8.38;;
46158;SDS011;31888;44.512;26.104;2023-06-10T11:34:21;13.82;;;8.63;;
46158;SDS011;31888;44.512;26.104;2023-06-10T11:36:53;14.40;;;7.57;;
46158;SDS011;31888;44.512;26.104;2023-06-10T11:39:22;15.23;;;7.38;;
46158;SDS011;31888;44.512;26.104;2023-06-10T11:41:51;16.83;;;7.63;;
46158;SDS011;31888;44.512;26.104;2023-06-10T11:44:18;13.77;;;7.57;;
46158;SDS011;31888;44.512;26.104;2023-06-10T11:46:44;15.35;;;7.95;;
46158;SDS011;31888;44.512;26.104;2023-06-10T11:49:11;12.43;;;7.10;;
46158;SDS011;31888;44.512;26.104;2023-06-10T11:51:42;14.23;;;7.10;;
46158;SDS011;31888;44.512;26.104;2023-06-10T11:54:13;15.65;;;7.18;;
46158;SDS011;31888;44.512;26.104;2023-06-10T11:56:40;14.43;;;7.95;;
46158;SDS011;31888;44.512;26.104;2023-06-10T11:59:11;10.23;;;6.47;;
46158;SDS011;31888;44.512;26.104;2023-06-10T12:01:38;15.27;;;8.03;;
46158;SDS011;31888;44.512;26.104;2023-06-10T12:04:10;9.55;;;6.97;;
46158;SDS011;31888;44.512;26.104;2023-06-10T12:06:43;12.43;;;7.28;;
46158;SDS011;31888;44.512;26.104;2023-06-10T12:09:15;13.73;;;6.95;;
46158;SDS011;31888;44.512;26.104;2023-06-10T12:11:51;12.98;;;7.03;;
46158;SDS011;31888;44.512;26.104;2023-06-10T12:17:22;14.02;;;7.57;;
46158;SDS011;31888;44.512;26.104;2023-06-10T12:20:00;11.85;;;7.63;;
46158;SDS011;31888;44.512;26.104;2023-06-10T12:22:35;14.10;;;7.93;;
46158;SDS011;31888;44.512;26.104;2023-06-10T12:27:34;9.82;;;7.35;;
46158;SDS011;31888;44.512;26.104;2023-06-10T12:30:05;13.95;;;7.25;;
46158;SDS011;31888;44.512;26.104;2023-06-10T12:32:40;10.18;;;6.57;;
46158;SDS011;31888;44.512;26.104;2023-06-10T12:35:07;10.77;;;7.50;;
46158;SDS011;31888;44.512;26.104;2023-06-10T12:37:54;9.68;;;6.20;;
46158;SDS011;31888;44.512;26.104;2023-06-10T12:40:25;14.52;;;7.47;;
46158;SDS011;31888;44.512;26.104;2023-06-10T12:42:54;10.30;;;6.40;;
46158;SDS011;31888;44.512;26.104;2023-06-10T12:45:30;17.33;;;6.70;;
46158;SDS011;31888;44.512;26.104;2023-06-10T12:48:07;9.10;;;6.50;;
46158;SDS011;31888;44.512;26.104;2023-06-10T12:50:49;11.35;;;6.70;;
46158;SDS011;31888;44.512;26.104;2023-06-10T12:53:15;16.88;;;6.53;;
46158;SDS011;31888;44.512;26.104;2023-06-10T12:55:40;14.20;;;6.70;;
46158;SDS011;31888;44.512;26.104;2023-06-10T12:58:07;10.13;;;6.35;;
46158;SDS011;31888;44.512;26.104;2023-06-10T13:00:37;14.32;;;6.45;;
46158;SDS011;31888;44.512;26.104;2023-06-10T13:03:02;11.35;;;6.22;;
46158;SDS011;31888;44.512;26.104;2023-06-10T13:05:28;10.38;;;6.20;;
46158;SDS011;31888;44.512;26.104;2023-06-10T13:07:59;16.15;;;6.47;;
46158;SDS011;31888;44.512;26.104;2023-06-10T13:10:29;12.25;;;6.13;;
46158;SDS011;31888;44.512;26.104;2023-06-10T13:12:56;15.90;;;6.72;;
46158;SDS011;31888;44.512;26.104;2023-06-10T13:15:26;8.38;;;6.03;;
46158;SDS011;31888;44.512;26.104;2023-06-10T13:17:56;9.88;;;5.80;;
46158;SDS011;31888;44.512;26.104;2023-06-10T13:20:23;13.10;;;5.33;;
46158;SDS011;31888;44.512;26.104;2023-06-10T13:22:48;14.02;;;5.38;;
46158;SDS011;31888;44.512;26.104;2023-06-10T13:25:13;8.90;;;4.93;;
46158;SDS011;31888;44.512;26.104;2023-06-10T13:27:56;9.95;;;5.20;;
46158;SDS011;31888;44.512;26.104;2023-06-10T13:30:26;13.80;;;5.47;;
46158;SDS011;31888;44.512;26.104;2023-06-10T13:32:54;10.00;;;5.07;;
46158;SDS011;31888;44.512;26.104;2023-06-10T13:35:25;11.20;;;5.80;;
46158;SDS011;31888;44.512;26.104;2023-06-10T13:37:50;13.88;;;5.78;;
46158;SDS011;31888;44.512;26.104;2023-06-10T13:40:21;12.63;;;5.68;;
46158;SDS011;31888;44.512;26.104;2023-06-10T13:42:46;9.82;;;6.05;;
46158;SDS011;31888;44.512;26.104;2023-06-10T13:45:16;7.68;;;5.80;;
46158;SDS011;31888;44.512;26.104;2023-06-10T13:47:41;13.98;;;6.32;;
46158;SDS011;31888;44.512;26.104;2023-06-10T13:50:09;10.40;;;7.57;;
46158;SDS011;31888;44.512;26.104;2023-06-10T13:52:36;16.98;;;6.32;;
46158;SDS011;31888;44.512;26.104;2023-06-10T13:55:11;20.60;;;6.47;;
46158;SDS011;31888;44.512;26.104;2023-06-10T13:57:42;9.50;;;5.47;;
46158;SDS011;31888;44.512;26.104;2023-06-10T14:00:22;10.93;;;5.90;;
46158;SDS011;31888;44.512;26.104;2023-06-10T14:02:51;15.02;;;6.53;;
46158;SDS011;31888;44.512;26.104;2023-06-10T14:05:29;9.05;;;6.35;;
46158;SDS011;31888;44.512;26.104;2023-06-10T14:08:09;8.10;;;6.40;;
46158;SDS011;31888;44.512;26.104;2023-06-10T14:10:36;14.70;;;6.60;;
46158;SDS011;31888;44.512;26.104;2023-06-10T14:13:03;13.10;;;6.68;;
46158;SDS011;31888;44.512;26.104;2023-06-10T14:15:28;13.80;;;5.70;;
46158;SDS011;31888;44.512;26.104;2023-06-10T14:17:55;12.55;;;6.68;;
46158;SDS011;31888;44.512;26.104;2023-06-10T14:20:19;15.13;;;7.00;;
46158;SDS011;31888;44.512;26.104;2023-06-10T14:22:46;13.38;;;6.97;;
46158;SDS011;31888;44.512;26.104;2023-06-10T14:25:12;9.35;;;6.90;;
46158;SDS011;31888;44.512;26.104;2023-06-10T14:27:44;11.80;;;6.60;;
46158;SDS011;31888;44.512;26.104;2023-06-10T14:30:10;16.85;;;6.97;;
46158;SDS011;31888;44.512;26.104;2023-06-10T14:32:37;13.68;;;6.90;;
46158;SDS011;31888;44.512;26.104;2023-06-10T14:35:02;18.52;;;6.63;;
46158;SDS011;31888;44.512;26.104;2023-06-10T14:37:27;17.08;;;6.65;;
46158;SDS011;31888;44.512;26.104;2023-06-10T14:39:54;16.00;;;6.57;;
46158;SDS011;31888;44.512;26.104;2023-06-10T14:42:19;20.98;;;7.53;;